Time;durP1;ratioP1;P1;durP2;ratioP2;P2;SDS_P1;SDS_P2;PMS_P1;PMS_P2;Temp;Humidity;BMP_temperature;BMP_pressure;BME280_temperature;BME280_humidity;BME280_pressure;Samples;Min_cycle;Max_cycle;Signal;HPM_P1;HPM_P2
2021/11/09 00:00:34;;;;;;;30.27;20.35;;;;;;;;;;5135703;27;20022;-72
2021/11/09 00:03:01;;;;;;;28.42;20.45;;;;;;;;;;5135485;27;20027;-71
2021/11/09 00:05:30;;;;;;;28.58;21.13;;;;;;;;;;5135428;27;20473;-73
2021/11/09 00:08:00;;;;;;;30.50;21.05;;;;;;;;;;5135374;27;20046;-72
2021/11/09 00:10:28;;;;;;;30.23;21.55;;;;;;;;;;5135229;27;20019;-72
2021/11/09 00:13:00;;;;;;;32.20;22.70;;;;;;;;;;5135239;27;20016;-72
2021/11/09 00:15:27;;;;;;;32.85;23.15;;;;;;;;;;5135123;27;20030;-73
2021/11/09 00:17:56;;;;;;;29.23;19.60;;;;;;;;;;5135107;27;20518;-74
2021/11/09 00:20:23;;;;;;;30.90;21.25;;;;;;;;;;5135081;27;20457;-71
2021/11/09 00:22:49;;;;;;;24.60;18.55;;;;;;;;;;5135113;27;20018;-72
2021/11/09 00:25:17;;;;;;;26.15;19.15;;;;;;;;;;5134786;27;20106;-74
2021/11/09 00:27:42;;;;;;;28.65;21.63;;;307.80;2304.00;;;;;;5135114;27;20094;-72
2021/11/09 00:30:10;;;;;;;25.55;19.20;;;307.80;2304.00;;;;;;5134948;27;20481;-74
2021/11/09 00:32:38;;;;;;;25.52;18.75;;;;;;;;;;5135006;27;20024;-72
2021/11/09 00:35:05;;;;;;;24.95;14.57;;;;;;;;;;5134959;27;20030;-73
2021/11/09 00:37:31;;;;;;;28.52;18.45;;;;;;;;;;5134665;27;20389;-73
2021/11/09 00:39:57;;;;;;;31.73;20.85;;;;;;;;;;5134777;27;20019;-72
2021/11/09 00:42:23;;;;;;;31.52;17.05;;;;;;;;;;5134657;27;20126;-72
2021/11/09 00:44:49;;;;;;;39.50;23.73;;;;;;;;;;5134849;27;20028;-72
2021/11/09 00:47:15;;;;;;;21.33;16.15;;;;;;;;;;5134513;27;20031;-74
2021/11/09 00:49:42;;;;;;;18.67;13.32;;;;;;;;;;5134674;27;20020;-73
2021/11/09 00:52:08;;;;;;;24.15;17.00;;;;;;;;;;5134532;27;20027;-72
2021/11/09 00:54:35;;;;;;;25.92;19.85;;;307.30;2304.00;;;;;;5134426;27;20020;-71
2021/11/09 00:57:02;;;;;;;32.38;21.55;;;307.30;2304.00;;;;;;5134838;27;20084;-74
2021/11/09 00:59:28;;;;;;;32.97;22.08;;;307.60;2304.00;;;;;;5134339;27;20100;-72
2021/11/09 01:01:54;;;;;;;29.33;20.48;;;307.40;2304.00;;;;;;5134403;27;20023;-72
2021/11/09 01:04:20;;;;;;;43.17;31.05;;;307.20;2304.00;;;;;;5133972;27;20068;-72
2021/11/09 01:06:46;;;;;;;33.55;22.00;;;282.50;2278.40;;;;;;5134239;27;20043;-72
2021/11/09 01:09:12;;;;;;;34.25;25.38;;;307.20;2304.00;;;;;;5134005;27;20342;-71
2021/11/09 01:11:39;;;;;;;35.92;22.42;;;307.30;2304.00;;;;;;5134378;27;20034;-72
2021/11/09 01:14:06;;;;;;;41.28;30.83;;;307.50;2304.00;;;;;;5134067;27;20069;-72
2021/11/09 01:16:32;;;;;;;43.85;30.55;;;307.40;2304.00;;;;;;5133946;27;20461;-74
2021/11/09 01:19:04;;;;;;;31.67;23.23;;;307.50;2304.00;;;;;;5133943;27;20019;-73
2021/11/09 01:21:31;;;;;;;32.42;22.75;;;307.30;2304.00;;;;;;5134229;27;20372;-72
2021/11/09 01:23:57;;;;;;;32.78;21.88;;;307.20;2304.00;;;;;;5133979;27;20472;-72
2021/11/09 01:26:23;;;;;;;32.10;23.88;;;282.50;2278.40;;;;;;5133856;27;20042;-72
2021/11/09 01:28:51;;;;;;;34.25;23.45;;;;;;;;;;5133438;27;20031;-72
2021/11/09 01:31:18;;;;;;;53.35;29.63;;;;;;;;;;5134086;27;20031;-72
2021/11/09 01:33:45;;;;;;;39.90;23.08;;;;;;;;;;5134063;27;20090;-72
2021/11/09 01:36:12;;;;;;;39.00;24.85;;;;;;;;;;5134084;27;20031;-72
2021/11/09 01:38:39;;;;;;;25.25;17.92;;;;;;;;;;5133645;27;20015;-72
2021/11/09 01:41:05;;;;;;;24.23;15.32;;;;;;;;;;5133971;27;20525;-72
2021/11/09 01:43:32;;;;;;;28.95;18.85;;;;;;;;;;5134048;27;20031;-72
2021/11/09 01:45:58;;;;;;;29.80;20.77;;;;;;;;;;5113923;27;20023;-71
2021/11/09 01:48:25;;;;;;;29.55;20.27;;;;;;;;;;5132844;27;20019;-72
2021/11/09 01:50:54;;;;;;;23.50;16.80;;;;;;;;;;5133967;27;20015;-72
2021/11/09 01:53:20;;;;;;;29.27;20.13;;;307.30;2304.00;;;;;;5133719;27;20019;-73
2021/11/09 01:55:47;;;;;;;33.63;22.92;;;307.50;2304.00;;;;;;5133617;27;20042;-73
2021/11/09 01:58:14;;;;;;;26.30;20.02;;;307.80;2304.00;;;;;;5133893;27;20042;-72
2021/11/09 02:00:48;;;;;;;27.20;20.63;;;307.70;2304.00;;;;;;5133580;27;20103;-72
2021/11/09 02:03:15;;;;;;;28.90;21.27;;;;;;;;;;5133803;27;20441;-71
2021/11/09 02:05:42;;;;;;;31.30;21.67;;;307.70;2304.00;;;;;;5133518;27;20052;-72
2021/11/09 02:08:08;;;;;;;34.90;25.48;;;307.80;2304.00;;;;;;5133484;27;20031;-72
2021/11/09 02:10:38;;;;;;;49.53;35.35;;;307.90;2304.00;;;;;;5133694;27;20476;-72
2021/11/09 02:13:05;;;;;;;44.58;28.67;;;307.80;2304.00;;;;;;5133313;27;20015;-72
2021/11/09 02:15:32;;;;;;;38.78;27.33;;;307.90;2304.00;;;;;;5133585;27;20016;-72
2021/11/09 02:17:59;;;;;;;36.30;26.27;;;;;;;;;;5133321;28;20110;-73
2021/11/09 02:20:27;;;;;;;38.72;27.25;;;;;;;;;;5133328;28;20014;-72
2021/11/09 02:22:54;;;;;;;46.85;30.92;;;;;;;;;;5133499;28;20019;-72
2021/11/09 02:25:21;;;;;;;36.17;26.70;;;;;;;;;;5132966;28;20480;-71
2021/11/09 02:27:49;;;;;;;36.40;25.10;;;;;;;;;;5133199;28;20100;-72
2021/11/09 02:30:17;;;;;;;35.35;26.38;;;;;;;;;;5133315;28;20055;-72
2021/11/09 02:32:43;;;;;;;41.97;29.13;;;;;;;;;;5133403;28;20378;-72
2021/11/09 02:35:10;;;;;;;44.53;29.48;;;;;;;;;;5133088;28;20023;-71
2021/11/09 02:37:36;;;;;;;41.10;29.30;;;;;;;;;;5133531;28;20035;-71
2021/11/09 02:40:04;;;;;;;32.78;23.80;;;;;;;;;;5136776;27;20488;-72
2021/11/09 02:42:35;;;;;;;38.63;26.33;;;;;;;;;;5137097;27;20492;-71
2021/11/09 02:45:07;;;;;;;47.03;26.50;;;;;;;;;;5137520;27;20408;-71
2021/11/09 02:47:50;;;;;;;38.35;22.25;;;;;;;;;;5137104;27;20033;-72
2021/11/09 02:50:18;;;;;;;33.80;22.27;;;307.80;2304.00;;;;;;5137481;27;20027;-73
2021/11/09 02:53:09;;;;;;;32.05;21.75;;;307.60;2304.00;;;;;;5137219;27;20019;-72
2021/11/09 02:55:35;;;;;;;33.30;21.67;;;307.30;2304.00;;;;;;5136640;27;20454;-72
2021/11/09 02:58:32;;;;;;;39.72;23.60;;;;;;;;;;5137160;27;20376;-72
2021/11/09 03:08:35;;;;;;;29.20;19.83;;;307.80;2304.00;;;;;;5137055;27;20031;-72
2021/11/09 03:11:02;;;;;;;33.92;22.17;;;;;;;;;;5136518;27;20110;-72
2021/11/09 03:13:28;;;;;;;29.45;21.63;;;307.70;2304.00;;;;;;5136933;27;20027;-73
2021/11/09 03:15:59;;;;;;;29.77;22.15;;;307.80;2304.00;;;;;;5136945;27;20469;-72
2021/11/09 03:18:27;;;;;;;27.88;20.35;;;307.90;2304.00;;;;;;5137048;27;20122;-71
2021/11/09 03:39:58;;;;;;;28.02;19.77;;;307.90;2304.00;;;;;;5136747;27;20027;-71
2021/11/09 03:45:40;;;;;;;23.27;17.08;;;307.40;2304.00;;;;;;5136347;27;20034;-72
2021/11/09 03:48:12;;;;;;;17.80;12.80;;;;;;;;;;5136251;27;20024;-72
2021/11/09 03:50:40;;;;;;;20.27;15.63;;;282.50;2278.40;;;;;;5135259;27;20034;-71
2021/11/09 03:53:27;;;;;;;19.25;13.93;;;282.50;2278.40;;;;;;5136059;27;20523;-72
2021/11/09 03:56:20;;;;;;;16.95;13.70;;;307.40;2304.00;;;;;;5135822;27;20031;-73
2021/11/09 03:58:45;;;;;;;20.65;13.70;;;;;;;;;;5135545;27;20039;-71
2021/11/09 04:01:16;;;;;;;29.38;19.13;;;307.70;2304.00;;;;;;5135780;27;20550;-71
2021/11/09 04:08:58;;;;;;;19.02;13.73;;;307.80;2304.00;;;;;;5136080;27;20106;-71
2021/11/09 04:14:50;;;;;;;22.77;14.52;;;;;;;;;;5092518;28;20391;-72
2021/11/09 04:25:42;;;;;;;26.05;17.30;;;307.50;2304.00;;;;;;5092274;28;19916;-71
2021/11/09 05:10:43;;;;;;;42.22;32.53;;;;;;;;;;5051578;28;20032;-71
2021/11/09 05:13:09;;;;;;;34.38;26.88;;;;;;;;;;5034411;28;20444;-71
2021/11/09 05:15:35;;;;;;;25.90;20.88;;;;;;;;;;5088073;27;20035;-71
2021/11/09 05:18:00;;;;;;;32.75;24.23;;;307.80;2304.00;;;;;;5134236;27;20095;-71
2021/11/09 05:20:29;;;;;;;40.15;26.75;;;;;;;;;;5134261;27;20104;-71
2021/11/09 05:22:55;;;;;;;123.90;108.18;;;;;;;;;;5134269;27;20027;-71
2021/11/09 05:25:21;;;;;;;58.63;45.28;;;;;;;;;;5133966;27;20533;-71
2021/11/09 05:27:48;;;;;;;38.38;26.60;;;;;;;;;;5133963;27;20043;-71
2021/11/09 05:30:15;;;;;;;37.00;26.27;;;;;;;;;;5134031;27;20469;-71
2021/11/09 05:32:41;;;;;;;30.27;20.45;;;;;;;;;;5134227;27;20027;-71
2021/11/09 05:35:07;;;;;;;31.45;21.13;;;;;;;;;;5134110;27;20030;-71
2021/11/09 05:37:39;;;;;;;47.83;29.20;;;;;;;;;;5134121;27;20125;-71
2021/11/09 05:40:07;;;;;;;39.55;25.67;;;307.90;2304.00;;;;;;5134022;27;20019;-71
2021/11/09 05:42:33;;;;;;;34.25;23.88;;;307.80;2304.00;;;;;;5133799;27;20020;-72
2021/11/09 05:44:59;;;;;;;35.63;23.88;;;307.60;2304.00;;;;;;5127470;27;20058;-71
2021/11/09 05:47:25;;;;;;;35.58;22.73;;;;;;;;;;5133947;27;20050;-71
2021/11/09 05:49:52;;;;;;;33.60;24.05;;;;;;;;;;5133936;27;20044;-71
2021/11/09 05:52:18;;;;;;;26.67;19.35;;;;;;;;;;5119207;27;20047;-72
2021/11/09 05:54:44;;;;;;;27.45;17.70;;;;;;;;;;5133704;27;20023;-72
2021/11/09 05:57:10;;;;;;;26.25;17.90;;;;;;;;;;5133962;27;20019;-71
2021/11/09 05:59:36;;;;;;;25.17;18.15;;;;;;;;;;5133654;27;20075;-71
2021/11/09 06:02:03;;;;;;;28.65;17.65;;;;;;;;;;5133734;27;20030;-71
2021/11/09 06:04:29;;;;;;;26.52;22.40;;;;;;;;;;5133448;27;20023;-73
2021/11/09 06:06:55;;;;;;;35.05;22.52;;;;;;;;;;5133606;27;20035;-71
2021/11/09 06:09:21;;;;;;;26.50;18.33;;;;;;;;;;5133301;27;20019;-71
2021/11/09 06:11:47;;;;;;;26.50;19.48;;;;;;;;;;5133470;27;20027;-71
2021/11/09 06:14:13;;;;;;;33.70;24.20;;;;;;;;;;5118974;28;20034;-71
2021/11/09 06:16:39;;;;;;;34.97;26.88;;;;;;;;;;5133303;27;20023;-71
2021/11/09 06:19:05;;;;;;;45.33;32.60;;;307.90;2304.00;;;;;;5133310;28;20492;-71
2021/11/09 06:21:32;;;;;;;51.47;42.05;;;;;;;;;;5133352;28;20030;-71
2021/11/09 06:23:58;;;;;;;50.15;40.92;;;307.90;2304.00;;;;;;5133360;28;20027;-71
2021/11/09 06:26:24;;;;;;;33.88;24.67;;;;;;;;;;5133348;28;20082;-71
2021/11/09 06:28:55;;;;;;;55.10;44.95;;;;;;;;;;5133003;28;20027;-71
2021/11/09 06:31:21;;;;;;;59.78;51.10;;;;;;;;;;5130559;28;20373;-71
2021/11/09 06:33:47;;;;;;;60.60;49.58;;;;;;;;;;5133069;28;20023;-71
2021/11/09 06:36:13;;;;;;;67.88;54.30;;;;;;;;;;5133279;28;20485;-71
2021/11/09 06:38:39;;;;;;;53.30;40.80;;;;;;;;;;5133166;28;20015;-71
2021/11/09 06:41:05;;;;;;;48.65;40.00;;;;;;;;;;5133162;28;20011;-71
2021/11/09 06:43:31;;;;;;;45.92;36.95;;;;;;;;;;5133131;28;20525;-70
2021/11/09 06:45:58;;;;;;;43.35;31.63;;;;;;;;;;5132889;28;20028;-71
2021/11/09 06:48:25;;;;;;;46.97;37.40;;;;;;;;;;5133191;28;20023;-71
2021/11/09 06:50:52;;;;;;;36.90;27.45;;;;;;;;;;5133098;28;20015;-71
2021/11/09 06:53:18;;;;;;;35.50;23.75;;;;;;;;;;5133120;28;20015;-71
2021/11/09 06:55:44;;;;;;;55.70;49.63;;;;;;;;;;5133211;28;20452;-72
2021/11/09 06:58:10;;;;;;;57.33;49.33;;;;;;;;;;5132950;28;20120;-71
2021/11/09 07:00:36;;;;;;;65.80;51.25;;;;;;;;;;5132777;28;20492;-71
2021/11/09 07:03:02;;;;;;;44.67;33.20;;;;;;;;;;5132868;28;20520;-71
2021/11/09 07:05:29;;;;;;;64.05;53.33;;;;;;;;;;5132727;28;20103;-71
2021/11/09 07:07:55;;;;;;;57.28;46.83;;;307.90;2304.00;;;;;;5132452;28;20030;-73
2021/11/09 07:10:21;;;;;;;35.22;25.63;;;308.00;2304.00;;;;;;5132527;28;20467;-71
2021/11/09 07:12:47;;;;;;;40.75;33.17;;;307.80;2304.00;;;;;;5132431;28;20087;-71
2021/11/09 07:15:14;;;;;;;38.97;29.35;;;307.60;2304.00;;;;;;5132693;28;20473;-72
2021/11/09 07:17:41;;;;;;;38.97;28.52;;;;;;;;;;5132270;28;20097;-71
2021/11/09 07:20:12;;;;;;;58.80;45.40;;;307.60;2304.00;;;;;;5132365;28;20015;-72
2021/11/09 07:22:38;;;;;;;49.55;36.17;;;307.80;2304.00;;;;;;5133154;28;20122;-72
2021/11/09 07:25:05;;;;;;;42.53;31.00;;;307.80;2304.00;;;;;;5132622;27;20423;-72
2021/11/09 07:27:31;;;;;;;48.85;34.85;;;307.70;2304.00;;;;;;5136109;27;20047;-71
2021/11/09 07:30:02;;;;;;;56.20;43.10;;;307.90;2304.00;;;;;;5136246;27;20031;-71
2021/11/09 07:32:28;;;;;;;112.65;75.07;;;;;;;;;;5133781;27;20035;-71
2021/11/09 07:34:54;;;;;;;60.20;43.15;;;332.80;2329.60;;;;;;5136092;27;20027;-71
2021/11/09 07:37:20;;;;;;;55.38;40.03;;;332.80;2329.60;;;;;;5135946;27;20410;-71
2021/11/09 07:39:47;;;;;;;54.15;38.83;;;332.90;2329.60;;;;;;5128077;27;20027;-71
2021/11/09 07:42:14;;;;;;;44.95;33.55;;;332.90;2329.60;;;;;;5135705;27;20027;-72
2021/11/09 07:44:40;;;;;;;42.35;33.30;;;332.90;2329.60;;;;;;5135983;27;20456;-72
2021/11/09 07:47:06;;;;;;;41.20;32.08;;;332.90;2329.60;;;;;;5135792;27;20027;-71
2021/11/09 07:49:32;;;;;;;42.83;32.33;;;;;;;;;;5135674;27;20504;-71
2021/11/09 07:51:59;;;;;;;44.88;33.50;;;;;;;;;;5135894;27;20473;-71
2021/11/09 07:54:28;;;;;;;39.53;28.63;;;;;;;;;;5133099;27;20396;-72
2021/11/09 07:57:03;;;;;;;35.38;25.83;;;;;;;;;;5136006;27;20037;-71
2021/11/09 08:02:04;;;;;;;42.70;29.13;;;;;;;;;;5126465;27;20035;-71
2021/11/09 08:04:42;;;;;;;35.65;27.17;;;;;;;;;;5135658;27;20048;-71
2021/11/09 08:07:15;;;;;;;34.60;26.63;;;;;;;;;;5135578;27;20141;-71
2021/11/09 08:09:41;;;;;;;37.63;29.55;;;;;;;;;;5135913;27;20080;-71
2021/11/09 08:12:08;;;;;;;35.92;26.50;;;;;;;;;;5124832;27;20023;-71
2021/11/09 08:14:34;;;;;;;36.47;27.35;;;;;;;;;;5132341;27;20036;-71
2021/11/09 08:17:01;;;;;;;32.40;26.02;;;;;;;;;;5135545;27;20024;-71
2021/11/09 08:19:27;;;;;;;33.25;24.95;;;;;;;;;;5135281;27;20100;-71
2021/11/09 08:21:54;;;;;;;40.67;27.33;;;;;;;;;;5135268;27;20102;-71
2021/11/09 08:24:21;;;;;;;30.90;20.83;;;;;;;;;;5135509;27;20090;-71
2021/11/09 08:26:48;;;;;;;32.38;22.27;;;;;;;;;;5134937;27;20493;-73
2021/11/09 08:29:14;;;;;;;32.30;24.30;;;;;;;;;;5135121;27;20030;-73
2021/11/09 08:31:44;;;;;;;34.70;26.38;;;308.00;2304.00;;;;;;5120958;27;20034;-71
2021/11/09 08:34:11;;;;;;;32.63;23.65;;;308.00;2304.00;;;;;;5106846;27;20018;-71
2021/11/09 08:36:39;;;;;;;35.28;26.08;;;332.80;2329.60;;;;;;5134501;27;20547;-71
2021/11/09 08:39:08;;;;;;;42.42;29.98;;;332.90;2329.60;;;;;;5134707;27;20019;-72
2021/11/09 08:41:44;;;;;;;47.75;31.65;;;332.90;2329.60;;;;;;5134703;27;20023;-72
2021/11/09 08:44:12;;;;;;;44.25;35.35;;;;;;;;;;5134490;27;20019;-72
2021/11/09 08:46:49;;;;;;;43.17;35.92;;;;;;;;;;5135046;27;20136;-71
2021/11/09 08:49:16;;;;;;;36.10;31.73;;;;;;;;;;5134509;27;20019;-71
2021/11/09 08:51:43;;;;;;;34.75;28.50;;;;;;;;;;5134751;27;20052;-72
2021/11/09 08:54:13;;;;;;;39.58;31.52;;;;;;;;;;5134589;27;20020;-72
2021/11/09 09:04:55;;;;;;;52.50;38.13;;;;;;;;;;5108216;27;20034;-73
2021/11/09 09:07:28;;;;;;;44.63;33.55;;;;;;;;;;5120520;27;20051;-72
2021/11/09 09:09:56;;;;;;;35.00;28.58;;;;;;;;;;5106197;27;20023;-72
2021/11/09 09:12:22;;;;;;;61.35;40.55;;;;;;;;;;5134584;27;20062;-71
2021/11/09 09:14:49;;;;;;;37.55;27.85;;;;;;;;;;5133887;27;20019;-71
2021/11/09 09:17:15;;;;;;;41.22;29.58;;;;;;;;;;5123333;27;20111;-71
2021/11/09 09:19:46;;;;;;;35.70;26.75;;;;;;;;;;5130696;27;20438;-72
2021/11/09 09:22:15;;;;;;;63.00;40.47;;;;;;;;;;5133800;27;20063;-71
2021/11/09 09:56:55;;;;;;;37.00;27.17;;;;;;;;;;5133671;27;20034;-71
2021/11/09 09:59:28;;;;;;;32.22;22.65;;;;;;;;;;5133041;27;20426;-72
2021/11/09 10:02:04;;;;;;;32.70;25.33;;;;;;;;;;5133364;27;20098;-71
2021/11/09 10:04:30;;;;;;;43.33;31.02;;;;;;;;;;5133036;27;20366;-71
2021/11/09 10:06:57;;;;;;;32.35;23.48;;;;;;;;;;5132890;27;20038;-71
2021/11/09 10:09:35;;;;;;;28.13;19.63;;;;;;;;;;5133106;27;20023;-71
2021/11/09 10:12:34;;;;;;;31.08;21.40;;;;;;;;;;5133194;27;20422;-71
2021/11/09 10:15:02;;;;;;;20.88;17.13;;;;;;;;;;5085234;28;20036;-71
2021/11/09 10:17:29;;;;;;;28.15;19.70;;;;;;;;;;5089954;28;20047;-71
2021/11/09 10:19:57;;;;;;;28.02;22.33;;;;;;;;;;5089572;28;20149;-71
2021/11/09 10:22:32;;;;;;;38.42;28.00;;;;;;;;;;5089912;28;20556;-70
2021/11/09 10:25:04;;;;;;;27.15;21.27;;;;;;;;;;5089868;28;20040;-71
2021/11/09 10:27:32;;;;;;;23.50;19.13;;;;;;;;;;5089494;28;20082;-71
2021/11/09 10:29:59;;;;;;;31.17;24.98;;;;;;;;;;5089609;28;20032;-71
2021/11/09 10:32:29;;;;;;;31.70;24.75;;;;;;;;;;5089766;28;20178;-71
2021/11/09 10:34:58;;;;;;;31.08;23.20;;;;;;;;;;5089823;28;20031;-72
2021/11/09 10:37:26;;;;;;;43.70;36.35;;;;;;;;;;5084755;28;20035;-74
2021/11/09 10:39:53;;;;;;;130.70;74.80;;;;;;;;;;5080667;28;20024;-72
2021/11/09 10:42:21;;;;;;;75.07;48.03;;;;;;;;;;5089566;28;20417;-71
2021/11/09 10:44:49;;;;;;;47.65;37.55;;;;;;;;;;5089627;28;20036;-72
2021/11/09 10:47:19;;;;;;;32.33;28.05;;;;;;;;;;5089505;28;20115;-73
2021/11/09 10:49:46;;;;;;;21.58;17.05;;;;;;;;;;5097328;28;20072;-73
2021/11/09 10:52:16;;;;;;;20.98;16.38;;;;;;;;;;5132708;27;20054;-73
2021/11/09 10:54:49;;;;;;;23.80;17.60;;;;;;;;;;5132750;28;20015;-74
2021/11/09 10:57:24;;;;;;;27.55;17.38;;;;;;;;;;5132746;28;20469;-71
2021/11/09 11:05:21;;;;;;;24.08;17.30;;;358.40;2329.60;;;;;;5137278;27;20061;-72
2021/11/09 11:08:05;;;;;;;25.83;19.10;;;358.40;2329.60;;;;;;5136212;27;20370;-71
2021/11/09 11:10:34;;;;;;;20.15;16.02;;;358.40;2329.60;;;;;;5136588;27;20106;-71
2021/11/09 11:13:20;;;;;;;17.70;13.77;;;358.40;2329.60;;;;;;5136284;27;20026;-71
2021/11/09 11:16:07;;;;;;;23.17;16.95;;;358.40;2329.60;;;;;;5136564;27;20034;-71
2021/11/09 11:18:36;;;;;;;19.30;13.20;;;333.70;2329.60;;;;;;5123311;27;20418;-72
2021/11/09 11:21:02;;;;;;;22.65;17.08;;;333.60;2329.60;;;;;;5136335;27;20022;-71
2021/11/09 11:23:30;;;;;;;28.20;21.90;;;333.30;2329.60;;;;;;5136200;27;20031;-72
2021/11/09 11:25:57;;;;;;;19.58;14.50;;;333.10;2329.60;;;;;;5136465;27;20023;-71
2021/11/09 11:28:24;;;;;;;37.80;26.02;;;333.20;2329.60;;;;;;5135793;27;20058;-71
2021/11/09 11:30:54;;;;;;;29.65;21.75;;;333.20;2329.60;;;;;;5135987;27;20381;-71
2021/11/09 11:33:20;;;;;;;31.23;21.48;;;333.20;2329.60;;;;;;5136171;27;20057;-71
2021/11/09 11:35:47;;;;;;;27.10;19.75;;;333.40;2329.60;;;;;;5135840;27;20076;-71
2021/11/09 11:38:16;;;;;;;27.40;18.73;;;333.40;2329.60;;;;;;5135911;27;20125;-71
2021/11/09 11:40:42;;;;;;;18.73;14.65;;;;;;;;;;5135693;27;20136;-71
2021/11/09 11:43:08;;;;;;;26.38;19.20;;;;;;;;;;5136242;27;20026;-72
2021/11/09 11:45:53;;;;;;;32.33;21.25;;;;;;;;;;5135593;27;20056;-71
2021/11/09 11:48:19;;;;;;;15.77;11.85;;;358.80;2329.60;;;;;;5135730;27;20108;-73
2021/11/09 11:50:45;;;;;;;18.70;13.52;;;358.90;2329.60;;;;;;5135565;27;20023;-73
2021/11/09 11:53:11;;;;;;;18.63;14.15;;;358.90;2329.60;;;;;;5136097;27;20023;-72
2021/11/09 11:55:38;;;;;;;32.70;21.92;;;;;;;;;;5135535;27;20381;-72
2021/11/09 11:58:14;;;;;;;30.83;23.92;;;359.30;2278.40;;;;;;5135218;27;20024;-71
2021/11/09 12:00:40;;;;;;;24.27;16.75;;;359.20;2304.00;;;;;;5135303;27;20022;-71
2021/11/09 12:03:25;;;;;;;21.50;16.92;;;384.00;2304.00;;;;;;5135728;27;20019;-72
2021/11/09 12:05:55;;;;;;;20.38;14.55;;;384.10;2304.00;;;;;;5134286;27;20461;-71
2021/11/09 12:08:34;;;;;;;37.78;26.92;;;384.10;2252.80;;;;;;5135391;27;20038;-71
2021/11/09 12:11:02;;;;;;;31.27;23.38;;;359.30;2329.60;;;;;;5134820;27;20011;-71
2021/11/09 12:13:28;;;;;;;219.27;147.15;;;359.30;2329.60;;;;;;5134967;27;20023;-71
2021/11/09 12:16:03;;;;;;;54.92;37.78;;;359.10;2329.60;;;;;;5135439;27;20015;-71
2021/11/09 12:18:31;;;;;;;30.15;23.17;;;359.30;2329.60;;;;;;5135005;27;20039;-71
2021/11/09 12:21:06;;;;;;;24.52;18.23;;;359.10;2329.60;;;;;;5135284;27;20075;-71
2021/11/09 12:23:35;;;;;;;18.65;13.27;;;359.10;2329.60;;;;;;5134938;27;20049;-70
2021/11/09 12:26:01;;;;;;;24.00;19.40;;;359.00;2329.60;;;;;;5135038;27;20024;-71
2021/11/09 12:28:36;;;;;;;33.92;23.27;;;359.00;2329.60;;;;;;5134989;27;20066;-71
2021/11/09 12:31:22;;;;;;;38.33;23.67;;;359.10;2329.60;;;;;;5135130;27;20024;-71
2021/11/09 12:33:50;;;;;;;41.30;29.45;;;359.00;2304.00;;;;;;5134395;27;20034;-71
2021/11/09 12:36:19;;;;;;;131.85;68.20;;;359.20;2304.00;;;;;;5135389;27;20029;-71
2021/11/09 12:38:49;;;;;;;54.08;29.92;;;359.30;2329.60;;;;;;5135211;27;20421;-71
2021/11/09 12:41:19;;;;;;;42.33;24.85;;;359.30;2278.40;;;;;;5135049;27;20015;-71
2021/11/09 12:43:53;;;;;;;76.47;39.80;;;359.30;2252.80;;;;;;5135503;27;20042;-71
2021/11/09 12:46:36;;;;;;;52.80;33.15;;;359.20;2329.60;;;;;;5134948;27;20491;-71
2021/11/09 12:49:09;;;;;;;39.55;26.67;;;359.20;2329.60;;;;;;5134854;27;20019;-70
2021/11/09 12:51:40;;;;;;;49.92;31.92;;;359.10;2329.60;;;;;;5135057;27;20091;-71
2021/11/09 12:54:12;;;;;;;61.15;41.85;;;358.80;2329.60;;;;;;5134579;27;20027;-71
2021/11/09 12:56:57;;;;;;;26.98;16.70;;;359.00;2329.60;;;;;;5126028;27;20374;-71
2021/11/09 13:09:49;;;;;;;65.80;39.22;;;;;;;;;;5133413;27;20533;-71
2021/11/09 13:12:15;;;;;;;;;;;;;;;;;;5134851;27;20031;-71
2021/11/09 13:14:41;;;;;;;44.42;29.88;;;;;;;;;;5134122;27;19970;-71
2021/11/09 13:17:14;;;;;;;31.98;23.30;;;;;;;;;;5134039;27;20023;-71
2021/11/09 13:19:42;;;;;;;36.90;23.67;;;;;;;;;;5134250;27;20024;-71
2021/11/09 13:22:13;;;;;;;36.03;26.42;;;;;;;;;;5133768;27;20026;-71
2021/11/09 13:24:58;;;;;;;41.72;27.77;;;;;;;;;;5133004;27;20483;-71
2021/11/09 13:27:36;;;;;;;55.63;32.95;;;;;;;;;;5133601;27;20057;-70
2021/11/09 13:30:28;;;;;;;33.50;24.05;;;;;;;;;;5133780;27;20019;-70
2021/11/09 13:32:56;;;;;;;31.33;21.88;;;;;;;;;;5109874;27;20508;-70
2021/11/09 13:35:26;;;;;;;43.10;27.30;;;;;;;;;;5133558;27;20034;-70
2021/11/09 13:38:08;;;;;;;42.03;30.33;;;;;;;;;;5133680;27;20055;-71
2021/11/09 13:40:34;;;;;;;27.60;20.17;;;;;;;;;;5133537;27;20080;-70
2021/11/09 13:43:02;;;;;;;17.90;13.55;;;;;;;;;;5133419;27;20054;-70
2021/11/09 13:45:28;;;;;;;17.67;10.98;;;;;;;;;;5133266;27;20409;-70
2021/11/09 13:47:54;;;;;;;22.80;17.67;;;;;;;;;;5133544;27;20038;-70
2021/11/09 13:50:20;;;;;;;56.53;40.47;;;;;;;;;;5133266;27;20045;-70
2021/11/09 13:52:48;;;;;;;38.83;27.17;;;;;;;;;;5132865;27;20023;-70
2021/11/09 13:55:15;;;;;;;48.25;32.30;;;;;;;;;;5129132;27;20019;-69
2021/11/09 13:57:41;;;;;;;34.97;24.08;;;;;;;;;;5124511;27;20074;-70
2021/11/09 14:00:17;;;;;;;16.00;12.05;;;;;;;;;;5133297;27;20114;-70
2021/11/09 14:02:54;;;;;;;45.30;30.00;;;;;;;;;;5133212;27;20038;-70
2021/11/09 14:05:47;;;;;;;22.05;17.23;;;;;;;;;;5133126;27;20528;-70
2021/11/09 14:16:54;;;;;;;27.42;21.60;;;;;;;;;;5036572;28;20080;-70
2021/11/09 14:19:29;;;;;;;79.05;53.72;;;;;;;;;;5063840;28;20107;-70
2021/11/09 14:21:56;;;;;;;29.27;17.08;;;;;;;;;;5069551;28;20025;-70
2021/11/09 14:24:23;;;;;;;36.20;23.17;;;;;;;;;;5060344;28;20033;-71
2021/11/09 14:27:04;;;;;;;26.23;17.73;;;;;;;;;;5064825;28;20063;-70
2021/11/09 14:29:33;;;;;;;34.35;20.90;;;;;;;;;;5069488;28;20086;-70
2021/11/09 14:31:59;;;;;;;26.45;19.27;;;;;;;;;;5069530;28;20048;-70
2021/11/09 14:34:28;;;;;;;23.30;17.13;;;;;;;;;;5069981;28;20115;-70
2021/11/09 14:37:06;;;;;;;17.48;13.90;;;;;;;;;;5073813;28;20094;-71
2021/11/09 14:39:38;;;;;;;21.48;17.23;;;;;;;;;;5073691;28;20037;-70
2021/11/09 14:44:53;;;;;;;48.07;36.00;;;;;;;;;;5073600;28;20029;-71
2021/11/09 14:47:20;;;;;;;32.15;23.63;;;;;;;;;;5073252;28;20048;-70
2021/11/09 14:49:56;;;;;;;39.03;31.92;;;;;;;;;;5065022;28;20029;-71
2021/11/09 14:52:27;;;;;;;32.60;23.70;;;;;;;;;;5081924;28;20035;-71
2021/11/09 14:55:00;;;;;;;23.90;17.48;;;;;;;;;;5116296;28;20073;-70
2021/11/09 14:57:33;;;;;;;29.17;21.17;;;;;;;;;;5116245;28;20046;-71
2021/11/09 15:00:04;;;;;;;37.88;27.95;;;;;;;;;;5116201;28;20032;-70
2021/11/09 15:02:30;;;;;;;50.60;38.50;;;;;;;;;;5115875;28;20049;-71
2021/11/09 15:04:56;;;;;;;49.03;41.17;;;;;;;;;;5115922;28;20260;-71
2021/11/09 15:07:29;;;;;;;52.22;46.20;;;;;;;;;;5116358;28;20389;-70
2021/11/09 15:13:21;;;;;;;34.40;27.45;;;;;;;;;;5116192;28;20043;-70
2021/11/09 15:29:13;;;;;;;28.77;23.02;;;308.00;2304.00;;;;;;5136306;27;20378;-71
2021/11/09 15:39:16;;;;;;;29.45;22.20;;;;;;;;;;5135940;27;20377;-70
2021/11/09 15:41:43;;;;;;;32.97;25.00;;;;;;;;;;5135931;27;20106;-70
2021/11/09 15:44:09;;;;;;;32.30;25.35;;;;;;;;;;5135954;27;20008;-71
2021/11/09 15:46:35;;;;;;;35.45;27.73;;;;;;;;;;5134753;27;20027;-70
2021/11/09 15:49:02;;;;;;;44.83;34.00;;;;;;;;;;5135565;27;20037;-71
2021/11/09 15:51:28;;;;;;;47.30;32.95;;;;;;;;;;5135745;27;20023;-70
2021/11/09 15:53:54;;;;;;;48.95;37.55;;;;;;;;;;5135601;27;20068;-71
2021/11/09 15:56:20;;;;;;;44.13;36.17;;;;;;;;;;5135916;27;20015;-71
2021/11/09 15:58:47;;;;;;;85.45;67.25;;;;;;;;;;5135625;27;20035;-70
2021/11/09 16:01:13;;;;;;;121.10;89.63;;;;;;;;;;5135189;27;20015;-70
2021/11/09 16:03:40;;;;;;;117.30;90.05;;;;;;;;;;5135637;27;20031;-70
2021/11/09 16:06:08;;;;;;;186.13;116.03;;;;;;;;;;5135351;27;20435;-70
2021/11/09 16:08:36;;;;;;;95.65;61.83;;;;;;;;;;5135473;27;20072;-70
2021/11/09 16:11:06;;;;;;;70.18;51.55;;;;;;;;;;5135348;27;20019;-71
2021/11/09 16:13:33;;;;;;;58.85;44.35;;;;;;;;;;5133911;27;20019;-72
2021/11/09 16:15:59;;;;;;;64.35;45.25;;;;;;;;;;5135241;27;20388;-70
2021/11/09 16:18:25;;;;;;;80.68;52.45;;;;;;;;;;5135286;27;20369;-71
2021/11/09 16:20:51;;;;;;;83.80;61.47;;;;;;;;;;5135453;27;20452;-70
2021/11/09 16:23:18;;;;;;;116.43;79.63;;;;;;;;;;5135309;27;20054;-71
2021/11/09 16:25:44;;;;;;;121.00;87.22;;;;;;;;;;5135323;27;20031;-70
2021/11/09 16:28:10;;;;;;;121.72;92.75;;;;;;;;;;5112308;27;20401;-70
2021/11/09 16:30:36;;;;;;;130.13;96.30;;;;;;;;;;5114996;27;20080;-70
2021/11/09 16:38:41;;;;;;;208.77;147.18;;;;;;;;;;5091438;28;20016;-70
2021/11/09 16:41:10;;;;;;;162.00;121.63;;;;;;;;;;5091752;28;20170;-70
2021/11/09 16:43:44;;;;;;;151.30;115.75;;;;;;;;;;5091515;28;20040;-70
2021/11/09 16:48:38;;;;;;;184.48;134.98;;;;;;;;;;5091552;28;20040;-70